createdAt,value
2022-10-01T00:00:15.069Z,99869.38
2022-10-01T00:02:43.206Z,99873.22
2022-10-01T00:05:11.912Z,99869.91
2022-10-01T00:07:40.628Z,99882.50
2022-10-01T00:10:11.028Z,99872.09
2022-10-01T00:12:46.724Z,99876.75
2022-10-01T00:15:16.560Z,99882.50
2022-10-01T00:17:44.749Z,99882.75
2022-10-01T00:20:14.650Z,99892.31
2022-10-01T00:22:42.939Z,99889.53
2022-10-01T00:25:11.663Z,99894.19
2022-10-01T00:27:41.135Z,99906.47
2022-10-01T00:30:10.227Z,99895.53
2022-10-01T00:32:39.081Z,99908.09
2022-10-01T00:35:09.558Z,99900.19
2022-10-01T00:37:37.793Z,99910.00
2022-10-01T00:40:06.827Z,99917.38
2022-10-01T00:42:35.604Z,99912.72
2022-10-01T00:45:05.474Z,99916.84
2022-10-01T00:47:36.153Z,99926.13
2022-10-01T00:50:08.339Z,99923.94
2022-10-01T00:52:40.199Z,99925.28
2022-10-01T00:55:12.158Z,99928.84
2022-10-01T00:57:41.494Z,99929.09
2022-10-01T01:00:13.742Z,99924.16
2022-10-01T01:02:42.157Z,99935.94
2022-10-01T01:05:13.576Z,99939.19
2022-10-01T01:07:45.969Z,99933.47
2022-10-01T01:10:16.203Z,99933.19
2022-10-01T01:13:08.343Z,99938.63
2022-10-01T01:15:43.707Z,99936.69
2022-10-01T01:18:18.350Z,99926.59
2022-10-01T01:20:56.619Z,99929.59
2022-10-01T01:23:43.899Z,99945.69
2022-10-01T01:26:24.543Z,99946.81
2022-10-01T01:28:58.616Z,99949.50
2022-10-01T01:31:34.836Z,99960.44
2022-10-01T01:34:06.979Z,99964.25
2022-10-01T01:36:38.215Z,99973.78
2022-10-01T01:39:10.618Z,99975.44
2022-10-01T01:41:42.356Z,99973.50
2022-10-01T01:44:16.311Z,99978.41
2022-10-01T01:46:49.444Z,99981.66
2022-10-01T01:49:20.223Z,99990.97
2022-10-01T01:51:55.243Z,99989.56
2022-10-01T01:54:23.458Z,99995.00
2022-10-01T01:56:52.068Z,100003.44
2022-10-01T01:59:21.849Z,100001.25
2022-10-01T02:01:51.489Z,100003.97
2022-10-01T02:04:24.555Z,100009.16
2022-10-01T02:07:16.246Z,100012.41
2022-10-01T02:09:53.312Z,100020.59
2022-10-01T02:12:31.622Z,100020.03
2022-10-01T02:15:10.045Z,100024.91
2022-10-01T02:17:50.708Z,100014.81
2022-10-01T02:20:22.073Z,100018.88
2022-10-01T02:22:53.935Z,100022.94
2022-10-01T02:25:27.092Z,100018.31
2022-10-01T02:28:01.073Z,100013.09
2022-10-01T02:30:33.184Z,100016.34
2022-10-01T02:33:39.170Z,100020.16
2022-10-01T02:36:11.305Z,100023.41
2022-10-01T02:38:43.934Z,100021.75
2022-10-01T02:41:14.813Z,100027.19
2022-10-01T02:43:47.081Z,100024.97
2022-10-01T02:46:22.169Z,100029.88
2022-10-01T02:48:51.851Z,100033.13
2022-10-01T02:51:28.422Z,100026.81
2022-10-01T02:54:02.453Z,100026.53
2022-10-01T02:56:49.033Z,100034.16
2022-10-01T02:59:17.567Z,100047.72
2022-10-01T03:01:46.976Z,100042.59
2022-10-01T03:04:15.026Z,100046.09
2022-10-01T03:06:43.021Z,100049.06
2022-10-01T03:09:11.069Z,100056.38
2022-10-01T03:11:39.187Z,100049.53
2022-10-01T03:14:07.738Z,100056.06
2022-10-01T03:16:35.744Z,100064.50
2022-10-01T03:19:05.410Z,100076.78
2022-10-01T03:21:33.615Z,100083.56
2022-10-01T03:24:02.159Z,100077.75
2022-10-01T03:26:30.239Z,100076.09
2022-10-01T03:28:58.212Z,100081.81
2022-10-01T03:31:26.393Z,100081.25
2022-10-01T03:33:54.493Z,100084.22
2022-10-01T03:36:23.862Z,100091.06
2022-10-01T03:38:51.905Z,100092.66
2022-10-01T03:41:20.009Z,100097.56
2022-10-01T03:43:48.003Z,100110.03
2022-10-01T03:46:16.350Z,100116.06
2022-10-01T03:48:44.447Z,100123.06
2022-10-01T03:51:15.562Z,100129.63
2022-10-01T03:53:47.294Z,100138.88
2022-10-01T03:56:15.475Z,100147.28
2022-10-01T03:58:43.822Z,100148.91
2022-10-01T04:01:12.047Z,100148.03
2022-10-01T04:03:40.318Z,100155.09
2022-10-01T04:06:08.732Z,100164.91
2022-10-01T04:08:37.151Z,100165.69
2022-10-01T04:11:08.239Z,100168.41
2022-10-01T04:13:36.787Z,100169.22
2022-10-01T04:16:05.961Z,100170.56
2022-10-01T04:18:34.718Z,100181.38
2022-10-01T04:21:02.880Z,100186.50
2022-10-01T04:23:30.977Z,100187.84
2022-10-01T04:26:02.390Z,100193.78
2022-10-01T04:28:32.502Z,100189.41
2022-10-01T04:31:14.790Z,100201.88
2022-10-01T04:33:42.916Z,100197.16
2022-10-01T04:36:11.023Z,100201.78
2022-10-01T04:38:39.238Z,100194.69
2022-10-01T04:41:07.553Z,100195.19
2022-10-01T04:43:37.719Z,100198.16
2022-10-01T04:46:05.849Z,100212.28
2022-10-01T04:48:33.836Z,100208.41
2022-10-01T04:51:01.876Z,100210.81
2022-10-01T04:53:30.091Z,100215.16
2022-10-01T04:55:58.164Z,100219.78
2022-10-01T04:58:26.639Z,100224.91
2022-10-01T05:01:01.027Z,100235.44
2022-10-01T05:03:30.013Z,100239.59
2022-10-01T05:05:57.984Z,100241.97
2022-10-01T05:08:25.991Z,100243.31
2022-10-01T05:10:54.245Z,100240.25
2022-10-01T05:13:22.256Z,100236.13
2022-10-01T05:15:52.242Z,100248.91
2022-10-01T05:18:21.918Z,100244.53
2022-10-01T05:20:50.576Z,100244.84
2022-10-01T05:23:18.810Z,100263.09
2022-10-01T05:25:47.334Z,100260.84
2022-10-01T05:28:21.942Z,100262.16
2022-10-01T05:30:51.146Z,100274.38
2022-10-01T05:33:19.341Z,100278.75
2022-10-01T05:35:48.781Z,100289.06
2022-10-01T05:38:16.923Z,100288.47
2022-10-01T05:40:47.379Z,100302.09
2022-10-01T05:43:16.287Z,100303.75
2022-10-01T05:45:44.281Z,100305.88
2022-10-01T05:48:13.013Z,100310.75
2022-10-01T05:50:42.517Z,100310.16
2022-10-01T05:53:14.063Z,100309.34
2022-10-01T05:55:43.009Z,100320.22
2022-10-01T05:58:13.203Z,100320.22
2022-10-01T06:00:43.050Z,100321.84
2022-10-01T06:03:13.431Z,100334.09
2022-10-01T06:05:41.726Z,100334.09
2022-10-01T06:08:10.746Z,100335.97
2022-10-01T06:10:40.472Z,100348.25
2022-10-01T06:13:09.000Z,100346.63
2022-10-01T06:15:39.065Z,100359.50
2022-10-01T06:18:09.386Z,100368.72
2022-10-01T06:20:38.532Z,100371.69
2022-10-01T06:23:44.538Z,100370.84
2022-10-01T06:26:42.908Z,100378.31
2022-10-01T06:29:11.798Z,100393.22
2022-10-01T06:31:39.987Z,100385.88
2022-10-01T06:34:08.165Z,100387.53
2022-10-01T06:36:36.231Z,100389.69
2022-10-01T06:39:04.405Z,100390.28
2022-10-01T06:41:33.939Z,100394.63
2022-10-01T06:44:03.641Z,100400.41
2022-10-01T06:46:46.363Z,100400.41
2022-10-01T06:49:25.354Z,100399.59
2022-10-01T06:52:22.317Z,100404.09
2022-10-01T06:55:01.077Z,100407.88
2022-10-01T06:57:34.164Z,100411.19
2022-10-01T07:00:03.601Z,100425.59
2022-10-01T07:02:32.476Z,100437.09
2022-10-01T07:05:00.939Z,100427.84
2022-10-01T07:07:31.070Z,100437.44
2022-10-01T07:09:59.385Z,100444.28
2022-10-01T07:12:27.829Z,100432.09
2022-10-01T07:14:55.987Z,100445.22
2022-10-01T07:17:25.475Z,100440.94
2022-10-01T07:19:53.993Z,100447.56
2022-10-01T07:22:24.172Z,100448.75
2022-10-01T07:24:53.161Z,100448.25
2022-10-01T07:27:21.267Z,100455.94
2022-10-01T07:29:49.302Z,100459.81
2022-10-01T07:32:17.348Z,100468.44
2022-10-01T07:34:46.821Z,100467.13
2022-10-01T07:37:15.182Z,100472.41
2022-10-01T07:39:43.160Z,100468.97
2022-10-01T07:42:11.197Z,100475.56
2022-10-01T07:44:39.165Z,100485.75
2022-10-01T07:47:07.187Z,100487.16
2022-10-01T07:49:35.272Z,100484.28
2022-10-01T07:52:10.885Z,100498.81
2022-10-01T07:54:40.883Z,100502.22
2022-10-01T07:57:09.002Z,100500.94
2022-10-01T07:59:38.213Z,100497.00
2022-10-01T08:02:06.325Z,100505.59
2022-10-01T08:04:51.821Z,100511.81
2022-10-01T08:07:21.299Z,100523.31
2022-10-01T08:09:49.286Z,100516.22
2022-10-01T08:12:17.840Z,100524.44
2022-10-01T08:14:45.923Z,100522.97
2022-10-01T08:17:13.895Z,100528.09
2022-10-01T08:19:42.073Z,100523.47
2022-10-01T08:22:10.243Z,100526.78
2022-10-01T08:24:39.827Z,100530.59
2022-10-01T08:27:07.874Z,100531.81
2022-10-01T08:29:35.930Z,100533.56
2022-10-01T08:32:04.068Z,100542.59
2022-10-01T08:34:32.207Z,100540.63
2022-10-01T08:37:00.309Z,100554.88
2022-10-01T08:39:28.394Z,100553.53
2022-10-01T08:42:04.005Z,100563.38
2022-10-01T08:44:37.505Z,100570.31
2022-10-01T08:47:13.823Z,100556.56
2022-10-01T08:49:46.220Z,100565.78
2022-10-01T08:52:21.874Z,100564.00
2022-10-01T08:54:56.126Z,100572.03
2022-10-01T08:57:33.237Z,100566.66
2022-10-01T09:00:05.623Z,100575.00
2022-10-01T09:02:36.327Z,100579.78
2022-10-01T09:05:07.682Z,100593.00
2022-10-01T09:07:52.914Z,100591.34
2022-10-01T09:10:33.996Z,100584.53
2022-10-01T09:13:21.897Z,100589.31
2022-10-01T09:15:57.851Z,100596.66
2022-10-01T09:18:37.789Z,100598.97
2022-10-01T09:21:13.383Z,100590.06
2022-10-01T09:23:52.993Z,100592.44
2022-10-01T09:26:25.554Z,100597.25
2022-10-01T09:28:56.924Z,100612.06
2022-10-01T09:31:30.253Z,100601.28
2022-10-01T09:34:04.008Z,100614.06
2022-10-01T09:36:38.492Z,100620.88
2022-10-01T09:39:18.122Z,100621.19
2022-10-01T09:41:46.884Z,100628.56
2022-10-01T09:44:20.049Z,100633.63
2022-10-01T09:46:48.330Z,100643.22
2022-10-01T09:49:26.819Z,100643.16
2022-10-01T09:52:02.626Z,100642.00
2022-10-01T09:54:36.092Z,100646.47
2022-10-01T09:57:09.110Z,100647.91
2022-10-01T09:59:45.422Z,100652.41
2022-10-01T10:02:23.712Z,100656.63
2022-10-01T10:05:00.769Z,100652.16
2022-10-01T10:07:34.789Z,100654.09
2022-10-01T10:10:12.781Z,100654.53
2022-10-01T10:12:43.392Z,100661.81
2022-10-01T10:15:19.380Z,100670.44
2022-10-01T10:17:51.410Z,100654.75
2022-10-01T10:20:26.634Z,100674.06
2022-10-01T10:22:54.825Z,100663.22
2022-10-01T10:25:26.016Z,100669.22
2022-10-01T10:27:56.794Z,100670.66
2022-10-01T10:30:26.912Z,100662.44
2022-10-01T10:33:03.279Z,100672.13
2022-10-01T10:35:31.837Z,100673.19
2022-10-01T10:38:01.483Z,100666.72
2022-10-01T10:40:34.457Z,100673.22
2022-10-01T10:43:02.842Z,100678.19
2022-10-01T10:45:49.617Z,100674.06
2022-10-01T10:48:31.512Z,100676.91
2022-10-01T10:51:02.483Z,100686.88
2022-10-01T10:53:57.317Z,100678.09
2022-10-01T10:57:01.607Z,100687.50
2022-10-01T10:59:55.806Z,100711.63
2022-10-01T11:02:36.645Z,100706.13
2022-10-01T11:05:24.201Z,100706.75
2022-10-01T11:08:24.471Z,100713.19
2022-10-01T11:11:16.436Z,100719.56
2022-10-01T11:14:23.857Z,100719.34
2022-10-01T11:17:07.175Z,100723.25
2022-10-01T11:19:45.414Z,100730.16
2022-10-01T11:22:28.490Z,100719.97
2022-10-01T11:25:06.814Z,100726.06
2022-10-01T11:27:45.482Z,100726.03
2022-10-01T11:30:20.504Z,100731.81
2022-10-01T11:33:03.561Z,100736.47
2022-10-01T11:35:49.371Z,100731.00
2022-10-01T11:38:41.846Z,100724.38
2022-10-01T11:41:26.815Z,100736.47
2022-10-01T11:44:00.740Z,100733.72
2022-10-01T11:46:38.007Z,100734.84
2022-10-01T11:49:23.481Z,100744.19
2022-10-01T11:52:06.022Z,100746.91
2022-10-01T11:54:37.755Z,100754.38
2022-10-01T11:57:24.018Z,100752.44
2022-10-01T11:59:57.766Z,100763.97
2022-10-01T12:02:32.072Z,100763.41
2022-10-01T12:05:06.888Z,100773.88
2022-10-01T12:07:43.181Z,100768.09
2022-10-01T12:10:21.770Z,100756.28
2022-10-01T12:12:58.034Z,100771.13
2022-10-01T12:15:32.323Z,100762.59
2022-10-01T12:18:06.096Z,100772.16
2022-10-01T12:20:39.539Z,100776.56
2022-10-01T12:23:15.624Z,100770.38
2022-10-01T12:25:49.320Z,100766.00
2022-10-01T12:28:24.455Z,100760.00
2022-10-01T12:31:00.156Z,100770.44
2022-10-01T12:33:51.246Z,100776.50
2022-10-01T12:36:28.825Z,100777.34
2022-10-01T12:39:15.560Z,100780.50
2022-10-01T12:41:57.678Z,100791.44
2022-10-01T12:44:50.095Z,100791.44
2022-10-01T12:47:29.317Z,100794.47
2022-10-01T12:50:11.444Z,100791.97
2022-10-01T12:52:48.754Z,100790.88
2022-10-01T12:55:30.844Z,100787.59
2022-10-01T12:58:06.400Z,100798.91
2022-10-01T13:00:40.756Z,100802.50
2022-10-01T13:03:37.496Z,100809.66
2022-10-01T13:06:31.000Z,100810.22
2022-10-01T13:09:10.234Z,100814.03
2022-10-01T13:11:53.532Z,100812.97
2022-10-01T13:14:22.804Z,100820.66
2022-10-01T13:17:01.440Z,100811.84
2022-10-01T13:19:34.888Z,100811.56
2022-10-01T13:22:14.845Z,100799.72
2022-10-01T13:24:47.862Z,100807.41
2022-10-01T13:27:22.598Z,100810.72
2022-10-01T13:29:59.493Z,100818.94
2022-10-01T13:32:30.745Z,100812.84
2022-10-01T13:35:01.027Z,100815.59
2022-10-01T13:37:37.618Z,100823.84
2022-10-01T13:40:07.059Z,100814.25
2022-10-01T13:42:45.599Z,100827.97
2022-10-01T13:45:26.681Z,100828.81
2022-10-01T13:48:06.677Z,100826.03
2022-10-01T13:50:35.669Z,100832.03
2022-10-01T13:53:14.515Z,100839.19
2022-10-01T13:55:44.386Z,100833.72
2022-10-01T13:58:32.039Z,100842.25
2022-10-01T14:01:02.274Z,100841.44
2022-10-01T14:03:43.950Z,100849.13
2022-10-01T14:06:21.685Z,100850.81
2022-10-01T14:09:07.683Z,100849.09
2022-10-01T14:12:31.873Z,100854.91
2022-10-01T14:15:42.575Z,100852.94
2022-10-01T14:18:16.429Z,100855.09
2022-10-01T14:21:06.732Z,100854.59
2022-10-01T14:24:08.694Z,100853.50
2022-10-01T14:26:44.757Z,100858.69
2022-10-01T14:29:24.915Z,100856.13
2022-10-01T14:32:03.784Z,100859.19
2022-10-01T14:34:43.154Z,100856.19
2022-10-01T14:37:17.344Z,100861.97
2022-10-01T14:39:46.293Z,100857.28
2022-10-01T14:42:17.679Z,100857.81
2022-10-01T14:44:47.918Z,100856.13
2022-10-01T14:47:20.697Z,100848.75
2022-10-01T14:49:49.800Z,100857.34
2022-10-01T14:52:33.139Z,100863.97
2022-10-01T14:55:06.174Z,100870.03
2022-10-01T14:57:37.537Z,100856.56
2022-10-01T15:00:14.845Z,100868.38
2022-10-01T15:02:47.948Z,100874.69
2022-10-01T15:05:23.382Z,100868.09
2022-10-01T15:07:51.996Z,100859.28
2022-10-01T15:10:22.023Z,100861.19
2022-10-01T15:12:52.846Z,100855.16
2022-10-01T15:15:21.710Z,100865.56
2022-10-01T15:18:00.462Z,100861.19
2022-10-01T15:20:28.848Z,100867.78
2022-10-01T15:23:01.181Z,100866.66
2022-10-01T15:25:32.636Z,100871.59
2022-10-01T15:28:00.554Z,100868.84
2022-10-01T15:30:29.183Z,100877.38
2022-10-01T15:32:59.049Z,100882.06
2022-10-01T15:35:27.475Z,100877.66
2022-10-01T15:38:00.560Z,100869.41
2022-10-01T15:40:35.557Z,100871.09
2022-10-01T15:43:26.394Z,100889.97
2022-10-01T15:46:18.964Z,100891.38
2022-10-01T15:48:49.147Z,100875.41
2022-10-01T15:51:25.381Z,100889.72
2022-10-01T15:53:55.036Z,100899.59
2022-10-01T15:56:25.072Z,100889.69
2022-10-01T15:58:56.441Z,100908.94
2022-10-01T16:01:27.361Z,100899.06
2022-10-01T16:04:05.956Z,100900.75
2022-10-01T16:06:38.783Z,100917.28
2022-10-01T16:09:12.937Z,100909.09
2022-10-01T16:11:56.754Z,100914.00
2022-10-01T16:14:39.354Z,100918.38
2022-10-01T16:17:28.162Z,100914.78
2022-10-01T16:20:02.443Z,100925.44
2022-10-01T16:22:34.231Z,100925.69
2022-10-01T16:25:07.027Z,100924.63
2022-10-01T16:27:45.085Z,100925.94
2022-10-01T16:30:20.702Z,100928.16
2022-10-01T16:32:49.222Z,100927.88
2022-10-01T16:35:21.633Z,100952.50
2022-10-01T16:37:51.827Z,100941.59
2022-10-01T16:40:22.107Z,100956.59
2022-10-01T16:42:51.588Z,100954.66
2022-10-01T16:45:22.731Z,100952.69
2022-10-01T16:47:51.240Z,100961.19
2022-10-01T16:50:22.579Z,100971.63
2022-10-01T16:52:53.859Z,100959.22
2022-10-01T16:55:24.846Z,100953.16
2022-10-01T16:57:54.687Z,100962.44
2022-10-01T17:00:24.525Z,100966.81
2022-10-01T17:02:53.112Z,100979.16
2022-10-01T17:05:25.301Z,100982.09
2022-10-01T17:07:53.817Z,100990.28
2022-10-01T17:10:24.169Z,100998.50
2022-10-01T17:12:52.843Z,101008.91
2022-10-01T17:15:26.443Z,101010.97
2022-10-01T17:17:55.068Z,101008.75
2022-10-01T17:20:26.508Z,101006.53
2022-10-01T17:22:54.685Z,101018.84
2022-10-01T17:25:24.996Z,101022.69
2022-10-01T17:27:53.340Z,101033.09
2022-10-01T17:30:21.689Z,101027.28
2022-10-01T17:32:50.037Z,101029.09
2022-10-01T17:35:18.330Z,101024.13
2022-10-01T17:37:47.925Z,101042.47
2022-10-01T17:40:16.331Z,101049.56
2022-10-01T17:42:44.547Z,101052.56
2022-10-01T17:45:14.498Z,101049.16
2022-10-01T17:47:46.454Z,101063.94
2022-10-01T17:50:16.095Z,101066.94
2022-10-01T17:52:49.449Z,101072.09
2022-10-01T17:55:19.874Z,101089.84
2022-10-01T17:57:48.116Z,101074.38
2022-10-01T18:00:16.359Z,101080.38
2022-10-01T18:02:44.511Z,101087.47
2022-10-01T18:05:14.892Z,101092.03
2022-10-01T18:07:43.554Z,101096.19
2022-10-01T18:10:14.162Z,101090.13
2022-10-01T18:12:42.411Z,101088.19
2022-10-01T18:15:10.968Z,101089.22
2022-10-01T18:17:43.389Z,101082.91
2022-10-01T18:20:14.802Z,101082.31
2022-10-01T18:22:43.001Z,101084.41
2022-10-01T18:25:13.960Z,101093.03
2022-10-01T18:27:42.166Z,101109.16
2022-10-01T18:30:11.360Z,101116.22
2022-10-01T18:32:43.847Z,101119.44
2022-10-01T18:35:20.576Z,101128.75
2022-10-01T18:37:52.522Z,101126.00
2022-10-01T18:40:26.396Z,101121.63
2022-10-01T18:43:00.379Z,101120.44
2022-10-01T18:45:42.047Z,101130.34
2022-10-01T18:48:30.085Z,101128.66
2022-10-01T18:51:07.902Z,101129.16
2022-10-01T18:54:21.891Z,101134.06
2022-10-01T18:56:59.771Z,101149.66
2022-10-01T18:59:46.444Z,101152.50
2022-10-01T19:02:30.514Z,101148.44
2022-10-01T19:05:37.856Z,101153.91
2022-10-01T19:08:20.862Z,101159.94
2022-10-01T19:10:56.891Z,101150.31
2022-10-01T19:13:38.251Z,101151.66
2022-10-01T19:16:20.962Z,101155.22
2022-10-01T19:19:03.091Z,101154.06
2022-10-01T19:21:38.352Z,101161.78
2022-10-01T19:24:19.153Z,101159.94
2022-10-01T19:26:57.296Z,101151.50
2022-10-01T19:29:47.199Z,101167.09
2022-10-01T19:32:21.082Z,101156.97
2022-10-01T19:34:54.898Z,101165.91
2022-10-01T19:37:30.670Z,101165.91
2022-10-01T19:40:04.449Z,101165.41
2022-10-01T19:42:37.365Z,101176.63
2022-10-01T19:45:19.891Z,101187.81
2022-10-01T19:47:55.769Z,101195.44
2022-10-01T19:50:28.546Z,101201.41
2022-10-01T19:52:59.413Z,101209.63
2022-10-01T19:55:29.905Z,101208.56
2022-10-01T19:57:58.069Z,101219.75
2022-10-01T20:00:27.624Z,101225.81
2022-10-01T20:03:05.989Z,101227.13
2022-10-01T20:05:42.801Z,101230.94
2022-10-01T20:08:17.935Z,101231.63
2022-10-01T20:10:52.789Z,101230.94
2022-10-01T20:13:37.036Z,101224.88
2022-10-01T20:16:15.209Z,101230.09
2022-10-01T20:18:52.515Z,101246.91
2022-10-01T20:21:41.700Z,101254.19
2022-10-01T20:24:21.899Z,101258.56
2022-10-01T20:26:56.896Z,101258.25
2022-10-01T20:29:38.111Z,101248.44
2022-10-01T20:32:15.672Z,101256.66
2022-10-01T20:34:55.308Z,101259.53
2022-10-01T20:37:37.609Z,101259.53
2022-10-01T20:40:14.763Z,101253.78
2022-10-01T20:42:47.426Z,101256.78
2022-10-01T20:45:20.169Z,101267.38
2022-10-01T20:47:55.202Z,101275.59
2022-10-01T20:50:29.631Z,101288.44
2022-10-01T20:53:10.027Z,101293.09
2022-10-01T20:55:41.913Z,101287.03
2022-10-01T20:58:16.772Z,101298.56
2022-10-01T21:00:47.266Z,101292.50
2022-10-01T21:03:32.003Z,101299.38
2022-10-01T21:06:05.966Z,101302.38
2022-10-01T21:08:42.186Z,101316.31
2022-10-01T21:11:15.560Z,101318.81
2022-10-01T21:13:50.392Z,101309.50
2022-10-01T21:16:55.059Z,101305.00
2022-10-01T21:19:43.069Z,101305.34
2022-10-01T21:22:24.321Z,101306.44
2022-10-01T21:25:03.415Z,101298.94
2022-10-01T21:27:50.550Z,101303.31
2022-10-01T21:30:20.529Z,101310.97
2022-10-01T21:33:11.628Z,101314.75
2022-10-01T21:35:50.028Z,101309.28
2022-10-01T21:38:40.087Z,101318.09
2022-10-01T21:41:27.966Z,101319.63
2022-10-01T21:44:11.298Z,101326.19
2022-10-01T21:46:46.266Z,101325.72
2022-10-01T21:49:22.661Z,101321.56
2022-10-01T21:52:04.774Z,101325.59
2022-10-01T21:55:14.953Z,101328.81
2022-10-01T21:58:01.539Z,101332.63
2022-10-01T22:00:32.433Z,101328.00
2022-10-01T22:03:19.188Z,101328.81
2022-10-01T22:05:54.472Z,101343.59
2022-10-01T22:08:33.429Z,101350.72
2022-10-01T22:11:08.487Z,101349.06
2022-10-01T22:13:40.312Z,101350.25
2022-10-01T22:16:13.754Z,101339.03
2022-10-01T22:18:45.613Z,101355.47
2022-10-01T22:21:20.938Z,101368.91
2022-10-01T22:23:58.004Z,101367.50
2022-10-01T22:26:31.186Z,101364.75
2022-10-01T22:29:01.989Z,101370.22
2022-10-01T22:31:31.542Z,101371.44
2022-10-01T22:34:04.746Z,101378.22
2022-10-01T22:36:37.762Z,101376.78
2022-10-01T22:39:12.789Z,101380.09
2022-10-01T22:41:44.545Z,101378.44
2022-10-01T22:44:15.791Z,101378.78
2022-10-01T22:47:13.920Z,101379.25
2022-10-01T22:49:56.186Z,101394.25
2022-10-01T22:52:33.756Z,101399.16
2022-10-01T22:55:16.634Z,101408.66
2022-10-01T22:57:58.228Z,101399.59
2022-10-01T23:00:26.908Z,101401.75
2022-10-01T23:03:06.705Z,101409.38
2022-10-01T23:05:44.308Z,101414.50
2022-10-01T23:08:22.519Z,101410.91
2022-10-01T23:11:02.646Z,101415.88
2022-10-01T23:13:39.319Z,101415.06
2022-10-01T23:16:15.792Z,101426.00
2022-10-01T23:18:54.112Z,101421.00
2022-10-01T23:21:35.241Z,101417.06
2022-10-01T23:24:23.542Z,101414.81
2022-10-01T23:27:04.518Z,101423.47
2022-10-01T23:29:43.398Z,101423.13
2022-10-01T23:32:27.656Z,101423.47
2022-10-01T23:35:05.644Z,101427.75
2022-10-01T23:38:02.348Z,101416.91
2022-10-01T23:40:35.616Z,101417.38
2022-10-01T23:43:12.308Z,101418.47
2022-10-01T23:45:47.694Z,101412.03
2022-10-01T23:48:22.275Z,101414.78
2022-10-01T23:50:55.466Z,101421.53
2022-10-01T23:53:27.432Z,101419.63
2022-10-01T23:56:21.124Z,101422.34
2022-10-01T23:58:58.228Z,101428.50
